createdAt,value
2022-11-17T00:02:37.437Z,6.80
2022-11-17T00:06:02.418Z,6.80
2022-11-17T00:09:24.178Z,6.70
2022-11-17T00:12:45.795Z,6.70
2022-11-17T00:16:07.597Z,6.50
2022-11-17T00:19:30.485Z,6.50
2022-11-17T00:22:52.032Z,6.50
2022-11-17T00:26:14.714Z,6.50
2022-11-17T00:29:39.140Z,6.50
2022-11-17T00:33:01.951Z,6.50
2022-11-17T00:36:26.176Z,6.50
2022-11-17T00:39:47.736Z,6.60
2022-11-17T00:43:09.312Z,6.70
2022-11-17T00:46:30.849Z,6.70
2022-11-17T00:49:52.383Z,6.70
2022-11-17T00:53:17.022Z,6.70
2022-11-17T00:56:38.851Z,6.70
2022-11-17T01:00:00.397Z,6.70
2022-11-17T01:03:21.934Z,6.80
2022-11-17T01:06:44.432Z,6.70
2022-11-17T01:10:08.072Z,6.70
2022-11-17T01:13:29.602Z,6.70
2022-11-17T01:16:51.435Z,6.60
2022-11-17T01:20:13.009Z,6.60
2022-11-17T01:23:34.881Z,6.60
2022-11-17T01:26:57.959Z,6.60
2022-11-17T01:30:19.498Z,6.70
2022-11-17T01:33:41.258Z,6.70
2022-11-17T01:37:02.834Z,6.80
2022-11-17T01:40:24.373Z,6.80
2022-11-17T01:43:47.994Z,6.80
2022-11-17T01:47:13.256Z,6.90
2022-11-17T01:50:36.305Z,6.90
2022-11-17T01:53:58.253Z,6.90
2022-11-17T01:57:23.358Z,7.00
2022-11-17T02:00:46.597Z,7.00
2022-11-17T02:04:08.153Z,7.10
2022-11-17T02:07:31.367Z,7.10
2022-11-17T02:10:53.159Z,7.00
2022-11-17T02:14:14.711Z,7.00
2022-11-17T02:17:39.170Z,7.10
2022-11-17T02:21:10.291Z,7.00
2022-11-17T02:24:46.726Z,7.00
2022-11-17T02:28:13.499Z,6.90
2022-11-17T02:31:39.907Z,6.70
2022-11-17T02:35:09.544Z,6.60
2022-11-17T02:38:32.852Z,6.50
2022-11-17T02:41:56.306Z,6.40
2022-11-17T02:45:21.299Z,6.40
2022-11-17T02:48:45.726Z,6.30
2022-11-17T02:52:07.895Z,6.30
2022-11-17T02:55:29.440Z,6.20
2022-11-17T02:58:52.573Z,6.20
2022-11-17T03:02:25.451Z,6.10
2022-11-17T03:05:53.867Z,6.10
2022-11-17T03:09:18.422Z,6.00
2022-11-17T03:12:42.844Z,6.10
2022-11-17T03:16:09.972Z,6.20
2022-11-17T03:19:35.421Z,6.30
2022-11-17T03:22:59.968Z,6.50
2022-11-17T03:26:25.013Z,6.70
2022-11-17T03:29:49.065Z,6.90
2022-11-17T03:33:12.176Z,7.00
2022-11-17T03:36:36.990Z,7.20
2022-11-17T03:40:00.979Z,7.30
2022-11-17T03:43:25.029Z,7.50
2022-11-17T03:46:48.458Z,7.70
2022-11-17T03:50:12.710Z,7.80
2022-11-17T03:53:36.522Z,8.00
2022-11-17T03:57:01.453Z,8.20
2022-11-17T04:00:23.121Z,8.30
2022-11-17T04:03:44.695Z,8.30
2022-11-17T04:07:06.284Z,8.30
2022-11-17T04:10:29.212Z,8.30
2022-11-17T04:13:50.759Z,8.30
2022-11-17T04:17:12.299Z,8.30
2022-11-17T04:20:33.950Z,8.30
2022-11-17T04:23:55.498Z,8.30
2022-11-17T04:27:18.379Z,8.30
2022-11-17T04:30:39.929Z,8.40
2022-11-17T04:34:13.229Z,8.50
2022-11-17T04:37:34.778Z,8.50
2022-11-17T04:41:00.525Z,8.50
2022-11-17T04:44:24.322Z,8.60
2022-11-17T04:47:45.845Z,8.60
2022-11-17T04:51:07.389Z,8.60
2022-11-17T04:54:29.041Z,8.60
2022-11-17T04:57:50.569Z,8.70
2022-11-17T05:01:13.629Z,8.70
2022-11-17T05:04:35.188Z,8.70
2022-11-17T05:07:56.783Z,8.70
2022-11-17T05:11:18.462Z,8.70
2022-11-17T05:14:40.055Z,8.60
2022-11-17T05:18:02.985Z,8.60
2022-11-17T05:21:24.624Z,8.50
2022-11-17T05:24:46.169Z,8.40
2022-11-17T05:28:07.728Z,8.40
2022-11-17T05:31:29.680Z,8.40
2022-11-17T05:34:52.589Z,8.30
2022-11-17T05:38:14.129Z,8.40
2022-11-17T05:41:35.709Z,8.40
2022-11-17T05:44:57.255Z,8.40
2022-11-17T05:48:18.829Z,8.50
2022-11-17T05:51:41.717Z,8.40
2022-11-17T05:55:03.492Z,8.50
2022-11-17T05:58:26.772Z,8.50
2022-11-17T06:01:50.904Z,8.50
2022-11-17T06:05:18.754Z,8.40
2022-11-17T06:08:43.203Z,8.30
2022-11-17T06:12:06.435Z,8.10
2022-11-17T06:15:28.359Z,8.00
2022-11-17T06:18:51.620Z,8.00
2022-11-17T06:22:13.734Z,8.00
2022-11-17T06:25:37.813Z,8.10
2022-11-17T06:28:59.380Z,8.20
2022-11-17T06:32:21.232Z,8.30
2022-11-17T06:35:44.274Z,8.40
2022-11-17T06:39:05.821Z,8.40
2022-11-17T06:42:28.718Z,8.40
2022-11-17T06:45:50.340Z,8.50
2022-11-17T06:49:11.979Z,8.40
2022-11-17T06:52:33.549Z,8.40
2022-11-17T06:55:55.140Z,8.20
2022-11-17T06:59:18.065Z,8.10
2022-11-17T07:02:39.726Z,8.10
2022-11-17T07:06:01.735Z,8.30
2022-11-17T07:09:23.279Z,8.50
2022-11-17T07:12:45.482Z,8.80
2022-11-17T07:16:09.455Z,9.10
2022-11-17T07:19:31.013Z,9.30
2022-11-17T07:22:57.661Z,9.40
2022-11-17T07:26:19.230Z,9.40
2022-11-17T07:29:40.771Z,9.40
2022-11-17T07:33:03.665Z,9.30
2022-11-17T07:36:25.225Z,9.40
2022-11-17T07:39:46.773Z,9.40
2022-11-17T07:43:08.313Z,9.50
2022-11-17T07:46:29.855Z,9.60
2022-11-17T07:49:52.766Z,9.70
2022-11-17T07:53:14.310Z,9.70
2022-11-17T07:56:35.893Z,9.80
2022-11-17T07:59:57.448Z,9.90
2022-11-17T08:03:19.026Z,10.00
2022-11-17T08:06:41.970Z,10.20
2022-11-17T08:10:04.023Z,10.30
2022-11-17T08:13:25.614Z,10.40
2022-11-17T08:16:47.189Z,10.50
2022-11-17T08:20:09.161Z,10.60
2022-11-17T08:23:32.419Z,10.70
2022-11-17T08:26:54.219Z,10.80
2022-11-17T08:30:15.826Z,10.80
2022-11-17T08:33:37.394Z,11.00
2022-11-17T08:36:58.939Z,11.00
2022-11-17T08:40:21.908Z,11.00
2022-11-17T08:43:43.597Z,11.00
2022-11-17T08:47:05.225Z,11.10
2022-11-17T08:50:27.055Z,11.10
2022-11-17T08:53:48.726Z,11.20
2022-11-17T08:57:11.758Z,11.20
2022-11-17T09:00:33.347Z,11.20
2022-11-17T09:03:54.912Z,11.30
2022-11-17T09:07:16.485Z,11.30
2022-11-17T09:10:38.498Z,11.40
2022-11-17T09:14:01.432Z,11.50
2022-11-17T09:17:23.212Z,11.50
2022-11-17T09:20:46.052Z,11.60
2022-11-17T09:24:07.740Z,11.70
2022-11-17T09:27:29.306Z,11.70
2022-11-17T09:30:52.442Z,11.80
2022-11-17T09:34:14.096Z,11.90
2022-11-17T09:37:35.651Z,11.90
2022-11-17T09:40:58.300Z,11.80
2022-11-17T09:44:25.627Z,12.00
2022-11-17T09:48:02.391Z,12.10
2022-11-17T09:51:34.809Z,12.20
2022-11-17T09:54:56.932Z,12.20
2022-11-17T09:58:25.951Z,12.20
2022-11-17T10:01:47.575Z,12.20
2022-11-17T10:05:13.991Z,12.20
2022-11-17T10:08:39.099Z,12.20
2022-11-17T10:12:07.681Z,12.10
2022-11-17T10:15:33.331Z,12.20
2022-11-17T10:18:54.977Z,12.30
2022-11-17T10:22:21.002Z,12.30
2022-11-17T10:25:43.523Z,12.30
2022-11-17T10:29:08.792Z,12.20
2022-11-17T10:32:31.806Z,12.10
2022-11-17T10:35:54.279Z,11.90
2022-11-17T10:39:30.707Z,11.90
2022-11-17T10:42:59.612Z,12.00
2022-11-17T10:46:21.164Z,12.10
2022-11-17T10:49:42.941Z,12.00
2022-11-17T10:53:21.130Z,12.00
2022-11-17T10:56:43.810Z,12.00
2022-11-17T11:00:21.520Z,12.00
2022-11-17T11:03:48.845Z,12.00
2022-11-17T11:07:11.978Z,12.00
2022-11-17T11:10:35.008Z,12.00
2022-11-17T11:13:57.508Z,12.00
2022-11-17T11:17:20.458Z,12.00
2022-11-17T11:20:49.645Z,12.10
2022-11-17T11:24:17.152Z,12.20
2022-11-17T11:27:45.668Z,12.30
2022-11-17T11:31:11.293Z,12.40
2022-11-17T11:34:46.732Z,12.30
2022-11-17T11:38:14.685Z,12.30
2022-11-17T11:41:41.255Z,12.30
2022-11-17T11:45:16.363Z,12.30
2022-11-17T11:48:40.043Z,12.40
2022-11-17T11:52:04.787Z,12.60
2022-11-17T11:55:29.363Z,12.70
2022-11-17T11:58:57.325Z,12.80
2022-11-17T12:02:24.638Z,12.90
2022-11-17T12:05:52.134Z,13.00
2022-11-17T12:09:28.582Z,13.10
2022-11-17T12:12:51.498Z,13.00
2022-11-17T12:16:16.882Z,13.00
2022-11-17T12:19:48.679Z,12.90
2022-11-17T12:23:17.071Z,12.90
2022-11-17T12:26:38.636Z,12.80
2022-11-17T12:30:02.286Z,12.70
2022-11-17T12:33:24.024Z,12.80
2022-11-17T12:37:05.112Z,12.90
2022-11-17T12:40:42.681Z,13.00
2022-11-17T12:44:19.127Z,13.10
2022-11-17T12:47:43.086Z,13.00
2022-11-17T12:51:09.622Z,13.10
2022-11-17T12:54:34.493Z,13.10
2022-11-17T12:57:58.756Z,13.20
2022-11-17T13:01:25.219Z,13.10
2022-11-17T13:04:50.062Z,13.00
2022-11-17T13:08:19.248Z,12.80
2022-11-17T13:11:40.801Z,12.70
2022-11-17T13:15:03.007Z,12.70
2022-11-17T13:18:35.415Z,12.60
2022-11-17T13:21:59.808Z,12.50
2022-11-17T13:25:22.271Z,12.60
2022-11-17T13:28:44.459Z,12.60
2022-11-17T13:32:13.202Z,12.60
2022-11-17T13:35:35.638Z,12.70
2022-11-17T13:38:58.751Z,12.60
2022-11-17T13:42:21.156Z,12.60
2022-11-17T13:45:42.775Z,12.70
2022-11-17T13:49:19.198Z,12.80
2022-11-17T13:52:45.509Z,12.90
2022-11-17T13:56:21.201Z,12.90
2022-11-17T13:59:44.443Z,12.90
2022-11-17T14:03:26.011Z,12.90
2022-11-17T14:06:54.594Z,13.00
2022-11-17T14:10:26.492Z,12.90
2022-11-17T14:13:50.051Z,12.90
2022-11-17T14:17:12.765Z,12.70
2022-11-17T14:20:35.575Z,12.50
2022-11-17T14:24:04.783Z,12.50
2022-11-17T14:27:36.366Z,12.40
2022-11-17T14:30:59.549Z,12.40
2022-11-17T14:34:21.437Z,12.40
2022-11-17T14:37:43.160Z,12.30
2022-11-17T14:41:05.716Z,12.20
2022-11-17T14:44:28.181Z,12.20
2022-11-17T14:47:51.992Z,12.20
2022-11-17T14:51:16.841Z,12.20
2022-11-17T14:54:38.674Z,12.10
2022-11-17T14:58:00.843Z,12.10
2022-11-17T15:01:26.217Z,12.10
2022-11-17T15:04:51.768Z,12.10
2022-11-17T15:08:13.790Z,12.00
2022-11-17T15:11:39.376Z,11.90
2022-11-17T15:15:02.542Z,11.90
2022-11-17T15:18:25.235Z,11.80
2022-11-17T15:21:51.145Z,11.70
2022-11-17T15:25:15.905Z,11.60
2022-11-17T15:28:37.903Z,11.50
2022-11-17T15:31:59.449Z,11.40
2022-11-17T15:35:20.988Z,11.20
2022-11-17T15:38:44.590Z,11.20
2022-11-17T15:42:07.969Z,11.00
2022-11-17T15:45:29.581Z,10.90
2022-11-17T15:48:51.134Z,10.90
2022-11-17T15:52:12.680Z,10.80
2022-11-17T15:55:35.590Z,10.70
2022-11-17T15:58:57.850Z,10.60
2022-11-17T16:02:19.394Z,10.50
2022-11-17T16:05:40.926Z,10.50
2022-11-17T16:09:02.965Z,10.40
2022-11-17T16:12:25.868Z,10.30
2022-11-17T16:15:47.514Z,10.30
2022-11-17T16:19:09.082Z,10.20
2022-11-17T16:22:30.742Z,10.10
2022-11-17T16:25:52.292Z,10.00
2022-11-17T16:29:15.444Z,10.00
2022-11-17T16:32:37.146Z,9.90
2022-11-17T16:36:03.566Z,9.80
2022-11-17T16:39:26.772Z,9.80
2022-11-17T16:42:48.378Z,9.80
2022-11-17T16:46:17.587Z,10.00
2022-11-17T16:49:39.382Z,10.10
2022-11-17T16:53:00.916Z,10.30
2022-11-17T16:56:22.741Z,10.40
2022-11-17T16:59:44.282Z,10.50
2022-11-17T17:03:07.399Z,10.70
2022-11-17T17:06:29.470Z,10.80
2022-11-17T17:09:51.018Z,10.90
2022-11-17T17:13:12.536Z,11.00
2022-11-17T17:16:34.786Z,11.00
2022-11-17T17:19:57.683Z,10.90
2022-11-17T17:23:19.265Z,10.80
2022-11-17T17:26:40.840Z,10.70
2022-11-17T17:30:02.412Z,10.60
2022-11-17T17:33:24.548Z,10.50
2022-11-17T17:36:47.509Z,10.50
2022-11-17T17:40:09.735Z,10.50
2022-11-17T17:43:31.322Z,10.40
2022-11-17T17:46:52.891Z,10.30
2022-11-17T17:50:14.705Z,10.40
2022-11-17T17:53:37.642Z,10.50
2022-11-17T17:56:59.200Z,10.60
2022-11-17T18:00:20.824Z,10.60
2022-11-17T18:03:43.124Z,10.70
2022-11-17T18:07:04.707Z,10.80
2022-11-17T18:10:27.650Z,10.80
2022-11-17T18:13:50.175Z,10.80
2022-11-17T18:17:11.698Z,10.90
2022-11-17T18:20:33.247Z,10.90
2022-11-17T18:23:55.328Z,10.90
2022-11-17T18:27:18.213Z,10.90
2022-11-17T18:30:39.761Z,10.90
2022-11-17T18:34:01.938Z,10.90
2022-11-17T18:37:23.499Z,10.90
2022-11-17T18:40:45.054Z,10.80
2022-11-17T18:44:07.974Z,10.80
2022-11-17T19:02:02.493Z,10.60
2022-11-17T19:05:24.088Z,10.60
2022-11-17T19:08:45.924Z,10.70
2022-11-17T19:12:08.330Z,10.90
2022-11-17T19:15:29.980Z,11.00
2022-11-17T19:18:54.114Z,11.00
2022-11-17T19:22:15.727Z,11.10
2022-11-17T19:25:37.696Z,11.10
2022-11-17T19:29:00.209Z,11.10
2022-11-17T19:32:21.818Z,11.10
2022-11-17T19:35:44.960Z,11.00
2022-11-17T19:39:07.099Z,10.90
2022-11-17T19:42:28.711Z,10.80
2022-11-17T19:45:50.314Z,10.70
2022-11-17T19:49:11.916Z,10.70
2022-11-17T19:52:34.858Z,10.60
2022-11-17T19:55:59.127Z,10.40
2022-11-17T19:59:20.954Z,10.30
2022-11-17T20:02:42.786Z,10.20
2022-11-17T20:06:04.885Z,10.00
2022-11-17T20:09:27.836Z,9.90
2022-11-17T20:12:49.413Z,9.80
2022-11-17T20:16:12.692Z,9.60
2022-11-17T20:19:34.376Z,9.50
2022-11-17T20:22:55.970Z,9.30
2022-11-17T20:26:20.083Z,9.20
2022-11-17T20:29:41.683Z,9.10
2022-11-17T20:33:03.299Z,9.10
2022-11-17T20:36:24.989Z,9.00
2022-11-17T20:39:46.841Z,9.00
2022-11-17T20:43:09.777Z,8.90
2022-11-17T20:46:31.856Z,8.80
2022-11-17T20:49:53.613Z,8.80
2022-11-17T20:53:15.235Z,8.80
2022-11-17T20:56:36.826Z,8.70
2022-11-17T20:59:59.775Z,8.70
2022-11-17T21:03:21.742Z,8.70
2022-11-17T21:06:43.335Z,8.60
2022-11-17T21:10:05.088Z,8.50
2022-11-17T21:13:27.030Z,8.50
2022-11-17T21:16:49.963Z,8.50
2022-11-17T21:20:11.590Z,8.50
2022-11-17T21:23:33.168Z,8.40
2022-11-17T21:26:54.809Z,8.40
2022-11-17T21:30:16.485Z,8.40
2022-11-17T21:33:39.849Z,8.40
2022-11-17T21:37:01.490Z,8.40
2022-11-17T21:40:23.073Z,8.40
2022-11-17T21:43:45.479Z,8.40
2022-11-17T21:47:07.115Z,8.40
2022-11-17T21:50:30.072Z,8.40
2022-11-17T21:53:52.449Z,8.40
2022-11-17T21:57:14.051Z,8.40
2022-11-17T22:00:35.781Z,8.30
2022-11-17T22:03:57.700Z,8.30
2022-11-17T22:07:20.663Z,8.20
2022-11-17T22:10:42.339Z,8.20
2022-11-17T22:14:05.109Z,8.20
2022-11-17T22:17:26.725Z,8.20
2022-11-17T22:20:50.077Z,8.10
2022-11-17T22:24:13.062Z,8.10
2022-11-17T22:27:34.664Z,8.10
2022-11-17T22:30:56.279Z,8.00
2022-11-17T22:34:18.203Z,7.90
2022-11-17T22:37:39.785Z,7.90
2022-11-17T22:41:03.599Z,7.90
2022-11-17T22:44:25.190Z,7.90
2022-11-17T22:47:46.765Z,7.90
2022-11-17T22:51:09.343Z,7.90
2022-11-17T22:54:31.290Z,7.90
2022-11-17T22:57:54.211Z,7.90
2022-11-17T23:01:15.837Z,7.90
2022-11-17T23:04:37.417Z,8.00
2022-11-17T23:07:59.012Z,7.90
2022-11-17T23:11:37.855Z,7.90
2022-11-17T23:15:01.337Z,7.80
2022-11-17T23:18:23.237Z,7.80
2022-11-17T23:21:45.052Z,7.80
2022-11-17T23:25:06.905Z,7.80
2022-11-17T23:28:28.502Z,7.80
2022-11-17T23:31:51.428Z,7.70
2022-11-17T23:35:12.994Z,7.70
2022-11-17T23:38:34.727Z,7.70
2022-11-17T23:41:56.301Z,7.70
2022-11-17T23:45:18.026Z,7.70
2022-11-17T23:48:41.254Z,7.70
2022-11-17T23:52:02.847Z,7.70
2022-11-17T23:55:24.461Z,7.70
2022-11-17T23:58:46.134Z,7.80
